Time;durP1;ratioP1;P1;durP2;ratioP2;P2;SDS_P1;SDS_P2;PMS_P1;PMS_P2;Temp;Humidity;BMP_temperature;BMP_pressure;BME280_temperature;BME280_humidity;BME280_pressure;Samples;Min_cycle;Max_cycle;Signal;HPM_P1;HPM_P2
2022/08/26 00:00:45;;;;;;;16.25;7.10;;;20.60;99.90;;;;;;4987496;28;20085;-86
2022/08/26 00:03:12;;;;;;;12.70;7.38;;;20.60;99.90;;;;;;4995064;28;20451;-87
2022/08/26 00:05:38;;;;;;;13.25;7.57;;;20.60;99.90;;;;;;4993610;28;20046;-86
2022/08/26 00:08:06;;;;;;;13.00;7.28;;;20.50;99.90;;;;;;4995381;28;20026;-87
2022/08/26 00:10:31;;;;;;;14.88;7.45;;;20.50;99.90;;;;;;4994925;28;20030;-86
2022/08/26 00:12:57;;;;;;;13.15;6.90;;;20.60;99.90;;;;;;4994284;28;20026;-86
2022/08/26 00:15:23;;;;;;;17.23;8.07;;;20.60;99.90;;;;;;4985951;28;20031;-87
2022/08/26 00:17:51;;;;;;;14.10;7.95;;;20.60;99.90;;;;;;4990310;28;20040;-87
2022/08/26 00:20:20;;;;;;;13.55;7.70;;;20.60;99.90;;;;;;4989009;28;20038;-86
2022/08/26 00:22:46;;;;;;;14.18;6.97;;;20.40;99.90;;;;;;4990764;28;20030;-86
2022/08/26 00:25:13;;;;;;;16.50;7.32;;;20.30;99.90;;;;;;4985150;28;20026;-86
2022/08/26 00:27:40;;;;;;;12.75;6.97;;;20.30;99.90;;;;;;4986321;28;20414;-86
2022/08/26 00:30:09;;;;;;;15.35;7.38;;;20.30;99.90;;;;;;4981165;28;20042;-86
2022/08/26 00:32:36;;;;;;;14.32;7.15;;;20.20;99.90;;;;;;4983915;28;20030;-86
2022/08/26 00:35:03;;;;;;;14.38;6.88;;;20.20;99.90;;;;;;4983446;28;20041;-87
2022/08/26 00:37:29;;;;;;;14.73;7.47;;;20.10;99.90;;;;;;4986595;28;20022;-86
2022/08/26 00:39:54;;;;;;;16.83;7.50;;;20.00;99.90;;;;;;4992860;28;20090;-86
2022/08/26 00:42:20;;;;;;;15.63;7.78;;;19.90;99.90;;;;;;4980241;28;20399;-86
2022/08/26 00:44:46;;;;;;;14.20;8.00;;;19.90;99.90;;;;;;4980969;28;20019;-86
2022/08/26 00:47:33;;;;;;;14.88;7.57;;;19.90;99.90;;;;;;4987054;28;20106;-86
2022/08/26 00:50:01;;;;;;;13.95;7.60;;;19.80;99.90;;;;;;4990260;28;20040;-86
2022/08/26 00:52:28;;;;;;;13.73;8.25;;;19.80;99.90;;;;;;4992299;28;20026;-86
2022/08/26 00:55:08;;;;;;;14.68;7.30;;;19.70;99.90;;;;;;4982696;28;20518;-87
2022/08/26 00:57:35;;;;;;;13.25;7.38;;;19.60;99.90;;;;;;4991514;28;20058;-86
2022/08/26 01:00:10;;;;;;;15.00;7.65;;;19.60;99.90;;;;;;4995777;28;20485;-86
2022/08/26 01:02:36;;;;;;;14.02;7.60;;;19.70;99.90;;;;;;4986720;28;20109;-86
2022/08/26 01:05:04;;;;;;;13.60;7.45;;;19.90;99.90;;;;;;4994553;28;20050;-86
2022/08/26 01:07:30;;;;;;;14.98;8.38;;;19.80;99.90;;;;;;4994585;28;20022;-87
2022/08/26 01:09:59;;;;;;;14.48;8.13;;;19.70;99.90;;;;;;4991333;28;20030;-86
2022/08/26 01:12:26;;;;;;;15.18;7.95;;;19.60;99.90;;;;;;4994092;28;20034;-86
2022/08/26 01:14:53;;;;;;;14.13;7.63;;;19.50;99.90;;;;;;4995639;28;20027;-86
2022/08/26 01:17:19;;;;;;;13.88;7.97;;;19.40;99.90;;;;;;4996076;28;20027;-86
2022/08/26 01:19:50;;;;;;;14.65;7.93;;;19.40;99.90;;;;;;4995358;28;20691;-86
2022/08/26 01:22:18;;;;;;;14.02;7.35;;;19.50;99.90;;;;;;4994031;28;20471;-86
2022/08/26 01:24:46;;;;;;;13.25;7.35;;;19.50;99.90;;;;;;4994497;28;20554;-86
2022/08/26 01:27:15;;;;;;;16.30;7.93;;;20.10;99.90;;;;;;4988880;28;20022;-86
2022/08/26 01:29:43;;;;;;;14.75;7.25;;;20.40;99.90;;;;;;4990041;28;20549;-86
2022/08/26 01:32:13;;;;;;;12.93;6.97;;;20.50;99.90;;;;;;4991843;28;20030;-86
2022/08/26 01:34:39;;;;;;;15.85;8.45;;;20.50;99.90;;;;;;4986914;28;20042;-86
2022/08/26 01:37:09;;;;;;;14.80;7.80;;;20.50;99.90;;;;;;4989299;28;20037;-86
2022/08/26 01:39:35;;;;;;;18.85;7.95;;;20.20;99.90;;;;;;4995588;28;20076;-86
2022/08/26 01:42:02;;;;;;;13.95;7.72;;;20.10;99.90;;;;;;4989799;28;20030;-86
2022/08/26 01:44:35;;;;;;;13.43;7.95;;;20.00;99.90;;;;;;4993209;28;20077;-86
2022/08/26 01:47:01;;;;;;;13.52;7.10;;;20.00;99.90;;;;;;4991415;28;20450;-86
2022/08/26 01:49:27;;;;;;;17.42;7.50;;;20.00;99.90;;;;;;4988378;28;20097;-86
2022/08/26 01:51:55;;;;;;;14.05;7.88;;;19.80;99.90;;;;;;4992601;28;20030;-86
2022/08/26 01:54:22;;;;;;;15.52;7.35;;;19.70;99.90;;;;;;5008275;28;20505;-86
2022/08/26 01:56:48;;;;;;;13.15;7.70;;;19.60;99.90;;;;;;4992693;28;20084;-86
2022/08/26 01:59:17;;;;;;;13.10;7.55;;;19.50;99.90;;;;;;4993001;28;20036;-86
2022/08/26 02:01:42;;;;;;;15.32;7.45;;;19.50;99.90;;;;;;4992061;28;20054;-86
2022/08/26 02:04:23;;;;;;;15.82;8.27;;;19.60;99.90;;;;;;4992202;28;20038;-86
2022/08/26 02:06:49;;;;;;;13.82;7.75;;;19.50;99.90;;;;;;4992281;28;20058;-86
2022/08/26 02:09:17;;;;;;;14.00;8.27;;;19.30;99.90;;;;;;4989242;28;20728;-87
2022/08/26 02:11:44;;;;;;;16.05;8.55;;;19.20;99.90;;;;;;4988222;28;20105;-86
2022/08/26 02:14:27;;;;;;;14.77;7.45;;;19.20;99.90;;;;;;4992444;28;20026;-86
2022/08/26 02:16:54;;;;;;;13.95;7.43;;;19.40;99.90;;;;;;4990056;28;20049;-86
2022/08/26 02:19:24;;;;;;;13.32;7.40;;;19.40;99.90;;;;;;4985923;28;20026;-87
2022/08/26 02:21:52;;;;;;;13.68;8.02;;;19.40;99.90;;;;;;4989556;28;20089;-86
2022/08/26 02:24:28;;;;;;;14.55;7.85;;;19.40;99.90;;;;;;4995208;28;20034;-86
2022/08/26 02:26:56;;;;;;;13.75;8.10;;;19.40;99.90;;;;;;4992044;28;20483;-86
2022/08/26 02:29:41;;;;;;;15.65;7.70;;;19.40;99.90;;;;;;4989694;28;20026;-86
2022/08/26 02:32:08;;;;;;;14.95;8.27;;;19.40;99.90;;;;;;4989287;28;20037;-86
2022/08/26 02:34:34;;;;;;;16.25;8.10;;;19.40;99.90;;;;;;4987770;28;20038;-86
2022/08/26 02:37:03;;;;;;;15.15;7.93;;;19.30;99.90;;;;;;4991118;28;20502;-86
2022/08/26 02:39:30;;;;;;;15.50;7.50;;;19.30;99.90;;;;;;4992128;28;20030;-86
2022/08/26 02:41:56;;;;;;;14.75;8.20;;;19.10;99.90;;;;;;4986788;28;20866;-86
2022/08/26 02:44:22;;;;;;;14.95;7.63;;;19.00;99.90;;;;;;4988132;28;20391;-86
2022/08/26 02:46:48;;;;;;;13.68;7.70;;;18.80;99.90;;;;;;4991092;28;20033;-86
2022/08/26 02:49:15;;;;;;;16.15;7.80;;;18.80;99.90;;;;;;4989854;28;20026;-86
2022/08/26 02:51:40;;;;;;;17.25;8.07;;;18.70;99.90;;;;;;4990207;28;20034;-86
2022/08/26 02:54:06;;;;;;;13.57;8.20;;;18.60;99.90;;;;;;4990058;28;20035;-86
2022/08/26 02:56:33;;;;;;;14.27;8.25;;;18.50;99.90;;;;;;4987515;28;20041;-86
2022/08/26 02:58:59;;;;;;;13.57;7.25;;;18.60;99.90;;;;;;4985923;28;20054;-86
2022/08/26 03:01:28;;;;;;;14.68;9.02;;;18.60;99.90;;;;;;4986809;28;20030;-86
2022/08/26 03:03:56;;;;;;;15.77;8.45;;;18.70;99.90;;;;;;4968182;28;20035;-86
2022/08/26 03:06:23;;;;;;;17.73;8.10;;;18.70;99.90;;;;;;4992375;28;20161;-86
2022/08/26 03:08:49;;;;;;;13.68;8.27;;;18.70;99.90;;;;;;4987216;28;20025;-86
2022/08/26 03:11:15;;;;;;;15.80;7.70;;;18.80;99.90;;;;;;4993654;28;20023;-86
2022/08/26 03:13:41;;;;;;;18.63;9.07;;;18.90;99.90;;;;;;4991949;28;20114;-86
2022/08/26 03:16:07;;;;;;;16.27;8.05;;;19.40;99.90;;;;;;4994037;28;20526;-86
2022/08/26 03:18:33;;;;;;;16.63;8.68;;;19.50;99.90;;;;;;4997966;28;20025;-86
2022/08/26 03:21:12;;;;;;;15.23;8.80;;;19.50;99.90;;;;;;4996239;28;20144;-86
2022/08/26 03:23:39;;;;;;;19.67;8.25;;;19.50;99.90;;;;;;4996218;28;20026;-86
2022/08/26 03:26:07;;;;;;;16.65;9.02;;;19.60;99.90;;;;;;4996410;28;20023;-86
2022/08/26 03:28:32;;;;;;;18.95;8.75;;;19.50;99.90;;;;;;4995133;28;20513;-86
2022/08/26 03:30:58;;;;;;;22.00;9.60;;;19.40;99.90;;;;;;4991929;28;20031;-86
2022/08/26 03:33:25;;;;;;;17.05;8.95;;;19.40;99.90;;;;;;4995307;28;20042;-86
2022/08/26 03:35:52;;;;;;;21.65;9.60;;;19.30;99.90;;;;;;4995494;28;20137;-86
2022/08/26 03:38:19;;;;;;;17.70;9.85;;;19.30;99.90;;;;;;4995797;28;20026;-87
2022/08/26 03:40:45;;;;;;;19.05;10.18;;;19.30;99.90;;;;;;4983892;28;20113;-86
2022/08/26 03:43:12;;;;;;;21.35;10.30;;;19.30;99.90;;;;;;4995562;28;20023;-86
2022/08/26 03:45:38;;;;;;;22.08;10.80;;;19.40;99.90;;;;;;4995067;28;20495;-86
2022/08/26 03:48:04;;;;;;;20.85;11.85;;;19.50;99.90;;;;;;4995330;28;20027;-86
2022/08/26 03:50:30;;;;;;;22.17;11.73;;;19.40;99.90;;;;;;4992563;28;20030;-86
2022/08/26 03:52:56;;;;;;;16.15;9.98;;;19.20;99.90;;;;;;4994593;28;20516;-86
2022/08/26 03:55:26;;;;;;;23.73;12.95;;;19.00;99.90;;;;;;4996668;28;20034;-86
2022/08/26 03:57:52;;;;;;;26.45;15.27;;;19.00;99.90;;;;;;4991372;28;20034;-86
2022/08/26 04:00:19;;;;;;;25.70;15.90;;;19.00;99.90;;;;;;4987561;28;20031;-86
2022/08/26 04:02:47;;;;;;;24.52;14.15;;;19.00;99.90;;;;;;4994362;28;20042;-86
2022/08/26 04:05:16;;;;;;;27.67;15.68;;;19.00;99.90;;;;;;4994597;28;20029;-86
2022/08/26 04:07:42;;;;;;;24.40;14.60;;;19.10;99.90;;;;;;4992776;28;20092;-86
2022/08/26 04:10:09;;;;;;;23.63;13.68;;;19.10;99.90;;;;;;4982191;28;20075;-86
2022/08/26 04:12:37;;;;;;;25.88;14.68;;;19.00;99.90;;;;;;4992813;28;20073;-86
2022/08/26 04:15:10;;;;;;;30.30;18.48;;;19.00;99.90;;;;;;4993103;28;20458;-86
2022/08/26 04:17:36;;;;;;;32.80;19.23;;;19.10;99.90;;;;;;4990979;28;20041;-86
2022/08/26 04:20:03;;;;;;;31.55;19.60;;;19.20;99.90;;;;;;4993137;28;20550;-86
2022/08/26 04:22:29;;;;;;;35.92;21.52;;;19.20;99.90;;;;;;4993868;28;20075;-86
2022/08/26 04:24:55;;;;;;;38.58;20.45;;;19.20;99.90;;;;;;4994786;28;20022;-86
2022/08/26 04:27:21;;;;;;;32.58;20.40;;;19.10;99.90;;;;;;4989226;28;20034;-86
2022/08/26 04:29:46;;;;;;;32.35;20.75;;;19.10;99.90;;;;;;5008552;28;20494;-86
2022/08/26 04:32:12;;;;;;;35.17;20.63;;;19.00;99.90;;;;;;4982707;28;20100;-84
2022/08/26 04:34:38;;;;;;;39.35;22.20;;;19.00;99.90;;;;;;4986616;28;20039;-84
2022/08/26 04:37:04;;;;;;;38.20;22.08;;;19.00;99.90;;;;;;4991702;28;20041;-84
2022/08/26 04:39:30;;;;;;;38.42;23.65;;;19.00;99.90;;;;;;4991916;28;20481;-84
2022/08/26 04:41:56;;;;;;;37.42;22.15;;;18.90;99.90;;;;;;4987332;28;20023;-84
2022/08/26 04:44:24;;;;;;;41.85;22.50;;;19.00;99.90;;;;;;4989940;28;20385;-85
2022/08/26 04:46:51;;;;;;;38.13;22.35;;;19.00;99.90;;;;;;4986403;28;20030;-85
2022/08/26 04:49:17;;;;;;;40.92;23.73;;;18.90;99.90;;;;;;4983805;28;20085;-85
2022/08/26 04:51:43;;;;;;;45.65;27.38;;;18.90;99.90;;;;;;4990273;28;20038;-85
2022/08/26 04:54:08;;;;;;;49.58;29.92;;;18.90;99.90;;;;;;4986754;28;20038;-85
2022/08/26 04:56:40;;;;;;;52.60;31.17;;;19.00;99.90;;;;;;4980677;28;20061;-85
2022/08/26 04:59:09;;;;;;;54.90;33.65;;;18.90;99.90;;;;;;4980933;28;20399;-85
2022/08/26 05:01:38;;;;;;;54.90;34.10;;;18.90;99.90;;;;;;4994652;28;20079;-85
2022/08/26 05:04:06;;;;;;;60.03;36.03;;;18.90;99.90;;;;;;4989884;28;20114;-85
2022/08/26 05:06:32;;;;;;;59.67;37.13;;;18.90;99.90;;;;;;4989788;28;20134;-85
2022/08/26 05:08:57;;;;;;;60.78;37.28;;;18.90;99.90;;;;;;4987701;28;20353;-85
2022/08/26 05:11:23;;;;;;;65.72;38.13;;;18.90;99.90;;;;;;4991763;28;20073;-85
2022/08/26 05:13:49;;;;;;;66.03;40.15;;;19.00;99.90;;;;;;4983007;28;20041;-85
2022/08/26 05:16:15;;;;;;;66.22;40.30;;;19.00;99.90;;;;;;4987539;28;20113;-85
2022/08/26 05:18:43;;;;;;;73.32;42.35;;;19.00;99.90;;;;;;4988699;28;20041;-85
2022/08/26 05:21:23;;;;;;;74.55;43.58;;;19.10;99.90;;;;;;4992797;28;20053;-87
2022/08/26 05:23:50;;;;;;;70.45;43.75;;;19.10;99.90;;;;;;4991855;28;20739;-86
2022/08/26 05:26:18;;;;;;;76.75;44.05;;;19.10;99.90;;;;;;4992302;28;20447;-85
2022/08/26 05:28:44;;;;;;;76.60;44.75;;;19.30;99.90;;;;;;4991815;28;20683;-85
2022/08/26 05:31:15;;;;;;;77.03;44.25;;;19.40;99.90;;;;;;4986005;28;20026;-85
2022/08/26 05:33:41;;;;;;;84.95;49.10;;;19.50;99.90;;;;;;4989285;28;20034;-85
2022/08/26 05:36:12;;;;;;;97.82;54.05;;;19.60;99.90;;;;;;4990976;28;20018;-85
2022/08/26 05:38:38;;;;;;;100.93;57.85;;;19.60;99.90;;;;;;4981615;28;20663;-85
2022/08/26 05:41:13;;;;;;;102.18;57.33;;;19.70;99.90;;;;;;5003959;28;20038;-85
2022/08/26 05:43:39;;;;;;;99.40;54.67;;;19.70;99.90;;;;;;5002608;28;20574;-85
2022/08/26 05:46:06;;;;;;;98.93;56.33;;;19.70;99.90;;;;;;4988782;28;20070;-85
2022/08/26 05:48:31;;;;;;;100.25;54.17;;;19.70;99.90;;;;;;4990117;28;20030;-85
2022/08/26 05:51:03;;;;;;;102.93;54.95;;;19.70;99.90;;;;;;4989116;28;20081;-85
2022/08/26 05:53:30;;;;;;;95.10;54.67;;;19.80;99.90;;;;;;4999409;28;20084;-85
2022/08/26 05:55:55;;;;;;;105.60;58.30;;;19.90;99.90;;;;;;4985272;28;20050;-85
2022/08/26 05:58:22;;;;;;;104.65;55.33;;;19.80;99.90;;;;;;5005725;28;20054;-85
2022/08/26 06:01:07;;;;;;;94.63;40.85;;;19.90;99.90;;;;;;4981518;28;20073;-85
2022/08/26 06:03:37;;;;;;;108.68;54.58;;;20.10;99.90;;;;;;4987054;28;20044;-86
2022/08/26 06:06:09;;;;;;;111.15;56.08;;;20.10;99.90;;;;;;4980079;28;20129;-86
2022/08/26 06:08:35;;;;;;;103.53;52.97;;;20.20;99.90;;;;;;4990463;28;20034;-85
2022/08/26 06:11:04;;;;;;;101.65;52.80;;;20.10;99.90;;;;;;4987496;28;20061;-85
2022/08/26 06:13:31;;;;;;;106.40;55.42;;;20.20;99.90;;;;;;4989631;28;20652;-85
2022/08/26 06:15:58;;;;;;;103.32;53.88;;;20.30;99.90;;;;;;4985945;28;20019;-85
2022/08/26 06:18:31;;;;;;;99.55;53.17;;;20.40;99.90;;;;;;4989920;28;20034;-85
2022/08/26 06:20:57;;;;;;;99.43;47.78;;;20.40;99.90;;;;;;4987684;28;20122;-86
2022/08/26 06:26:09;;;;;;;95.00;51.58;;;20.50;99.90;;;;;;4988781;28;20113;-85
2022/08/26 06:28:35;;;;;;;99.30;50.50;;;20.60;99.90;;;;;;4991915;28;20023;-86
2022/08/26 06:31:01;;;;;;;97.22;50.05;;;20.60;99.90;;;;;;4986674;28;20403;-85
2022/08/26 06:33:28;;;;;;;96.75;49.83;;;20.60;99.90;;;;;;4985648;28;20041;-85
2022/08/26 06:35:54;;;;;;;103.97;49.45;;;20.60;99.90;;;;;;4990728;28;20371;-86
2022/08/26 06:38:20;;;;;;;75.53;38.08;;;20.70;99.90;;;;;;4990809;28;20060;-86
2022/08/26 06:40:49;;;;;;;93.03;45.80;;;20.80;99.90;;;;;;4991503;28;20152;-86
2022/08/26 06:43:17;;;;;;;99.65;48.65;;;20.80;99.90;;;;;;4984175;28;20041;-86
2022/08/26 06:45:44;;;;;;;91.35;47.47;;;20.70;99.90;;;;;;4988569;28;20113;-86
2022/08/26 06:48:15;;;;;;;87.15;44.40;;;20.90;99.90;;;;;;4991593;28;20106;-86
2022/08/26 06:50:42;;;;;;;93.63;48.35;;;20.90;99.90;;;;;;4990521;28;20030;-86
2022/08/26 06:53:09;;;;;;;77.10;37.03;;;20.90;99.90;;;;;;4996518;28;20049;-86
2022/08/26 06:55:44;;;;;;;98.05;51.60;;;20.90;99.90;;;;;;4993731;28;20412;-86
2022/08/26 06:58:09;;;;;;;94.13;46.28;;;20.90;99.90;;;;;;4993738;28;20035;-86
2022/08/26 07:00:37;;;;;;;90.80;45.15;;;21.00;99.90;;;;;;4994039;28;20040;-86
2022/08/26 07:03:04;;;;;;;86.18;43.65;;;21.10;99.90;;;;;;4997076;28;20160;-86
2022/08/26 07:05:31;;;;;;;89.85;41.97;;;21.00;99.90;;;;;;4996344;28;20061;-86
2022/08/26 07:07:56;;;;;;;93.25;46.72;;;21.00;99.90;;;;;;4993507;28;20057;-86
2022/08/26 07:10:23;;;;;;;89.90;47.60;;;21.10;99.90;;;;;;4993626;28;20038;-86
2022/08/26 07:12:49;;;;;;;89.50;48.00;;;21.20;99.90;;;;;;4997895;28;20042;-86
2022/08/26 07:15:15;;;;;;;93.15;48.30;;;21.20;99.90;;;;;;4998002;28;20030;-86
2022/08/26 07:17:41;;;;;;;89.95;47.88;;;21.20;99.90;;;;;;4998631;28;20132;-85
2022/08/26 07:20:07;;;;;;;90.72;50.00;;;21.40;99.90;;;;;;4995771;28;20039;-86
2022/08/26 07:22:35;;;;;;;90.47;42.95;;;21.50;99.90;;;;;;4996063;28;20117;-86
2022/08/26 07:25:03;;;;;;;87.07;44.40;;;21.60;99.90;;;;;;5009189;28;20034;-87
2022/08/26 07:27:29;;;;;;;82.88;43.30;;;21.70;99.90;;;;;;4992440;28;20041;-86
2022/08/26 07:29:57;;;;;;;75.45;39.42;;;21.70;99.90;;;;;;4995276;28;20133;-85
2022/08/26 07:32:23;;;;;;;71.82;40.40;;;21.70;99.90;;;;;;4992905;28;20141;-86
2022/08/26 07:34:49;;;;;;;78.50;45.03;;;21.70;99.90;;;;;;4995882;28;20080;-86
2022/08/26 07:37:15;;;;;;;75.03;41.95;;;21.60;99.90;;;;;;4995071;28;20033;-86
2022/08/26 07:39:41;;;;;;;82.50;44.53;;;21.70;99.90;;;;;;4993199;28;20030;-86
2022/08/26 07:42:08;;;;;;;69.22;39.50;;;21.60;99.90;;;;;;4993083;28;20060;-86
2022/08/26 07:44:36;;;;;;;78.82;42.25;;;21.80;99.90;;;;;;5006524;28;20030;-86
2022/08/26 07:47:05;;;;;;;69.80;40.47;;;22.10;99.90;;;;;;4994652;28;20407;-86
2022/08/26 07:49:30;;;;;;;67.53;40.10;;;22.30;99.90;;;;;;4993825;28;20029;-87
2022/08/26 07:51:56;;;;;;;66.70;40.67;;;22.50;99.90;;;;;;4995182;28;20566;-86
2022/08/26 07:54:22;;;;;;;67.18;39.13;;;22.30;99.90;;;;;;4994021;28;20041;-86
2022/08/26 07:56:48;;;;;;;64.07;39.22;;;22.50;99.90;;;;;;4995533;28;20101;-86
2022/08/26 07:59:16;;;;;;;72.97;37.28;;;22.60;99.90;;;;;;5003517;28;20022;-86
2022/08/26 08:01:42;;;;;;;63.65;35.42;;;22.60;99.90;;;;;;4994119;28;20720;-86
2022/08/26 08:04:09;;;;;;;70.13;38.55;;;22.60;99.90;;;;;;4993894;28;20427;-86
2022/08/26 08:06:36;;;;;;;61.88;35.00;;;22.60;99.90;;;;;;4994898;28;20476;-86
2022/08/26 08:09:03;;;;;;;71.13;39.80;;;22.70;99.90;;;;;;4995686;28;20026;-86
2022/08/26 08:11:30;;;;;;;68.32;38.03;;;22.70;99.90;;;;;;4993962;28;20501;-86
2022/08/26 08:13:57;;;;;;;68.07;38.63;;;22.50;99.90;;;;;;5000685;28;20030;-86
2022/08/26 08:16:27;;;;;;;65.50;36.00;;;22.50;99.90;;;;;;4986164;28;20037;-86
2022/08/26 08:18:54;;;;;;;68.00;39.17;;;22.40;99.90;;;;;;4994661;28;20121;-87
2022/08/26 08:21:20;;;;;;;68.18;38.30;;;22.40;99.90;;;;;;4991451;28;20049;-86
2022/08/26 08:23:46;;;;;;;72.82;40.53;;;22.60;99.90;;;;;;4990234;28;20022;-86
2022/08/26 08:26:12;;;;;;;70.50;41.30;;;22.70;99.90;;;;;;4991835;28;20053;-86
2022/08/26 08:28:38;;;;;;;71.55;39.72;;;22.80;99.90;;;;;;4993000;28;20034;-86
2022/08/26 08:31:04;;;;;;;62.15;37.30;;;22.90;99.90;;;;;;4994131;28;20218;-86
2022/08/26 08:33:31;;;;;;;68.45;41.22;;;23.00;99.90;;;;;;4988679;28;20415;-86
2022/08/26 08:35:58;;;;;;;65.03;38.03;;;22.90;99.90;;;;;;5013250;28;20640;-86
2022/08/26 08:38:24;;;;;;;68.03;39.80;;;22.50;99.90;;;;;;4994820;28;20082;-86
2022/08/26 08:40:50;;;;;;;66.88;38.22;;;22.60;99.90;;;;;;4996344;28;20034;-86
2022/08/26 08:43:40;;;;;;;64.90;37.45;;;22.80;99.90;;;;;;4989796;28;20027;-86
2022/08/26 08:46:11;;;;;;;58.55;34.45;;;22.70;99.90;;;;;;4992452;28;20034;-86
2022/08/26 08:48:51;;;;;;;69.25;40.85;;;22.70;99.90;;;;;;4989187;28;20034;-86
2022/08/26 08:51:23;;;;;;;67.07;40.35;;;22.50;99.90;;;;;;5003020;28;20034;-86
2022/08/26 08:53:52;;;;;;;64.05;36.17;;;22.40;99.90;;;;;;4991187;28;20030;-86
2022/08/26 08:56:43;;;;;;;69.10;40.47;;;22.80;99.90;;;;;;4989170;28;20031;-86
2022/08/26 08:59:19;;;;;;;59.35;34.97;;;23.10;99.90;;;;;;4989609;28;20035;-86
2022/08/26 09:01:51;;;;;;;60.00;37.53;;;23.30;99.90;;;;;;4992806;28;20023;-86
2022/08/26 09:04:28;;;;;;;66.38;38.65;;;23.40;99.90;;;;;;5003288;28;20030;-87
2022/08/26 09:06:58;;;;;;;58.95;35.08;;;23.70;99.90;;;;;;4990221;28;20633;-87
2022/08/26 09:09:39;;;;;;;57.88;36.15;;;23.70;99.90;;;;;;4991072;28;20026;-86
2022/08/26 09:12:11;;;;;;;57.80;29.48;;;23.80;99.90;;;;;;4986598;28;20030;-86
2022/08/26 09:14:37;;;;;;;61.67;34.10;;;23.80;99.90;;;;;;4991508;28;20030;-86
2022/08/26 09:17:33;;;;;;;62.13;36.50;;;23.40;99.90;;;;;;4984793;28;20026;-86
2022/08/26 09:20:27;;;;;;;67.88;38.50;;;23.30;99.90;;;;;;4998244;28;20506;-86
2022/08/26 09:22:55;;;;;;;57.85;34.45;;;23.30;99.90;;;;;;4984221;28;20030;-86
2022/08/26 09:25:22;;;;;;;63.30;35.55;;;23.50;99.90;;;;;;4985023;28;20365;-86
2022/08/26 09:27:50;;;;;;;59.28;34.75;;;23.60;99.90;;;;;;4989508;28;20104;-86
2022/08/26 09:30:26;;;;;;;64.25;38.65;;;23.30;99.90;;;;;;4981436;28;20386;-86
2022/08/26 09:33:02;;;;;;;56.67;35.65;;;23.10;99.90;;;;;;4985367;28;20495;-86
2022/08/26 09:35:35;;;;;;;51.53;33.70;;;23.40;99.90;;;;;;4988453;28;20062;-86
2022/08/26 09:38:18;;;;;;;53.83;31.00;;;23.90;99.90;;;;;;4984740;28;20026;-86
2022/08/26 09:40:57;;;;;;;53.65;31.80;;;24.10;99.90;;;;;;4987485;28;20032;-86
2022/08/26 09:43:24;;;;;;;52.07;30.87;;;24.10;99.90;;;;;;4982607;28;20095;-86
2022/08/26 09:45:53;;;;;;;49.75;30.08;;;23.90;99.90;;;;;;4991180;28;20045;-86
2022/08/26 09:48:31;;;;;;;50.42;31.92;;;24.40;99.90;;;;;;5003034;28;20046;-86
2022/08/26 09:51:23;;;;;;;49.78;28.40;;;24.90;99.90;;;;;;4990182;28;20027;-86
2022/08/26 09:54:01;;;;;;;55.90;33.78;;;24.50;99.90;;;;;;4987902;28;20782;-86
2022/08/26 09:56:33;;;;;;;49.88;31.48;;;24.40;99.90;;;;;;4990029;28;20026;-86
2022/08/26 09:59:00;;;;;;;48.90;26.67;;;24.30;99.90;;;;;;4986550;28;20038;-86
2022/08/26 10:01:44;;;;;;;48.05;30.30;;;24.70;99.90;;;;;;4994841;28;20029;-86
2022/08/26 10:04:20;;;;;;;42.88;29.60;;;24.50;99.90;;;;;;5005748;28;20038;-87
2022/08/26 10:07:01;;;;;;;40.00;24.95;;;24.10;99.90;;;;;;4991880;28;20047;-87
2022/08/26 10:09:32;;;;;;;36.58;21.75;;;23.70;99.90;;;;;;4998203;28;20030;-86
2022/08/26 10:12:06;;;;;;;43.25;27.38;;;23.40;99.90;;;;;;4995000;28;20061;-86
2022/08/26 10:14:40;;;;;;;45.97;29.48;;;23.40;99.90;;;;;;5000773;28;20042;-86
2022/08/26 10:17:27;;;;;;;51.22;31.98;;;23.90;99.90;;;;;;4993157;28;20034;-86
2022/08/26 10:20:02;;;;;;;59.42;31.20;;;24.00;99.90;;;;;;4993106;28;20125;-86
2022/08/26 10:22:51;;;;;;;54.85;33.20;;;24.10;99.90;;;;;;4993568;28;20076;-86
2022/08/26 10:25:23;;;;;;;48.38;26.88;;;24.00;99.90;;;;;;4990697;28;20064;-86
2022/08/26 10:28:39;;;;;;;52.65;33.92;;;24.50;99.90;;;;;;4998621;28;20033;-86
2022/08/26 10:31:26;;;;;;;50.20;30.50;;;24.70;99.90;;;;;;4954135;28;20023;-87
2022/08/26 10:33:53;;;;;;;47.45;31.90;;;25.00;99.90;;;;;;4960420;28;20059;-87
2022/08/26 10:39:15;;;;;;;43.17;28.00;;;26.00;99.90;;;;;;4950669;28;20030;-86
2022/08/26 10:41:44;;;;;;;47.25;27.63;;;25.90;99.90;;;;;;4956694;28;20116;-86
2022/08/26 10:44:11;;;;;;;39.97;25.58;;;25.20;99.90;;;;;;4955805;28;20028;-86
2022/08/26 10:46:43;;;;;;;41.55;28.52;;;25.20;99.90;;;;;;4942145;29;20038;-87
2022/08/26 10:49:12;;;;;;;37.70;25.70;;;25.30;99.90;;;;;;4954994;28;20043;-87
2022/08/26 10:51:51;;;;;;;37.20;24.70;;;25.40;99.90;;;;;;4943468;28;20024;-87
2022/08/26 10:54:17;;;;;;;35.47;23.53;;;25.40;99.90;;;;;;4960315;28;20027;-87
2022/08/26 10:56:52;;;;;;;32.05;17.25;;;24.70;99.90;;;;;;4943064;28;20446;-87
2022/08/26 10:59:48;;;;;;;33.40;22.35;;;24.50;99.90;;;;;;4957174;28;20022;-87
2022/08/26 11:02:40;;;;;;;33.42;21.08;;;24.60;99.90;;;;;;4975461;28;20085;-87
2022/08/26 11:05:17;;;;;;;36.70;20.02;;;24.40;99.90;;;;;;4994665;28;20690;-87
2022/08/26 11:07:44;;;;;;;38.72;23.10;;;24.50;99.90;;;;;;4999002;28;20029;-87
2022/08/26 11:10:19;;;;;;;33.60;19.23;;;24.50;99.90;;;;;;4994378;28;20096;-87
2022/08/26 11:12:48;;;;;;;32.53;20.23;;;24.30;99.90;;;;;;5011330;28;20060;-87
2022/08/26 11:15:20;;;;;;;36.47;21.83;;;24.60;99.90;;;;;;4996098;28;20038;-87
2022/08/26 11:17:45;;;;;;;32.45;20.13;;;24.90;99.90;;;;;;5003987;28;20294;-87
2022/08/26 11:20:50;;;;;;;30.38;20.40;;;25.50;99.90;;;;;;5011138;28;20130;-87
2022/08/26 11:23:21;;;;;;;32.78;19.27;;;25.10;99.90;;;;;;4959298;28;20108;-87
2022/08/26 11:26:08;;;;;;;29.00;19.58;;;25.80;99.90;;;;;;4957655;28;20062;-87
2022/08/26 11:28:47;;;;;;;33.08;19.15;;;25.90;99.90;;;;;;4969036;28;21163;-87
2022/08/26 11:31:24;;;;;;;31.10;20.88;;;26.20;99.90;;;;;;4967480;28;20077;-87
2022/08/26 11:34:01;;;;;;;31.60;20.42;;;26.10;99.90;;;;;;4952672;28;20043;-87
2022/08/26 11:36:44;;;;;;;28.00;20.30;;;25.60;99.90;;;;;;4952028;28;20049;-87
2022/08/26 11:39:22;;;;;;;29.27;19.17;;;25.30;99.90;;;;;;4969966;28;20085;-87
2022/08/26 11:41:51;;;;;;;29.85;19.60;;;25.10;99.90;;;;;;4958974;28;20487;-87
2022/08/26 11:44:36;;;;;;;28.30;19.40;;;25.20;99.90;;;;;;4976166;28;20023;-87
2022/08/26 11:47:02;;;;;;;28.95;17.33;;;25.70;99.90;;;;;;4967583;28;20086;-87
2022/08/26 11:49:28;;;;;;;28.77;18.83;;;26.10;99.90;;;;;;4955661;28;20058;-87
2022/08/26 11:52:12;;;;;;;29.55;18.23;;;25.80;99.90;;;;;;4957078;28;20066;-87
2022/08/26 11:54:38;;;;;;;33.85;17.55;;;25.60;99.90;;;;;;4987471;28;20073;-87
2022/08/26 11:57:07;;;;;;;23.40;15.55;;;25.10;99.90;;;;;;4994923;28;20047;-87
2022/08/26 11:59:37;;;;;;;26.85;15.32;;;24.90;99.90;;;;;;4993784;28;20121;-87
2022/08/26 12:02:09;;;;;;;26.73;14.77;;;24.60;99.90;;;;;;4987737;28;20030;-87
2022/08/26 12:04:39;;;;;;;21.00;13.05;;;24.80;99.90;;;;;;4999942;28;20061;-87
2022/08/26 12:07:08;;;;;;;28.98;15.27;;;24.50;99.90;;;;;;4991761;28;20050;-87
2022/08/26 12:09:36;;;;;;;24.83;13.40;;;24.50;99.90;;;;;;4992663;28;20940;-87
2022/08/26 12:12:17;;;;;;;24.52;14.65;;;24.20;99.90;;;;;;5009046;28;20034;-87
2022/08/26 12:14:43;;;;;;;28.90;18.38;;;24.00;99.90;;;;;;4992922;28;20518;-87
2022/08/26 12:17:18;;;;;;;28.70;18.08;;;24.10;99.90;;;;;;4994993;28;20031;-88
2022/08/26 12:19:44;;;;;;;25.38;15.60;;;24.10;99.90;;;;;;4995044;28;20044;-88
2022/08/26 12:22:22;;;;;;;30.00;15.93;;;24.50;99.90;;;;;;4993926;28;20401;-88
2022/08/26 12:24:52;;;;;;;23.63;14.35;;;25.10;99.90;;;;;;4994484;28;20031;-88
2022/08/26 12:27:22;;;;;;;25.55;15.13;;;24.90;99.90;;;;;;4991942;28;20077;-88
2022/08/26 12:30:10;;;;;;;25.20;13.13;;;24.90;99.90;;;;;;4993263;28;20117;-88
2022/08/26 12:32:38;;;;;;;24.10;14.48;;;24.30;99.90;;;;;;4995175;28;20410;-88
2022/08/26 12:35:10;;;;;;;31.50;15.90;;;24.10;99.90;;;;;;4993057;28;20034;-88
2022/08/26 12:37:39;;;;;;;27.17;15.52;;;23.90;99.90;;;;;;4995606;28;20046;-88
2022/08/26 12:40:38;;;;;;;29.42;16.17;;;24.10;99.90;;;;;;4994004;28;20034;-88
2022/08/26 12:43:05;;;;;;;27.75;16.25;;;24.10;99.90;;;;;;4992779;28;20491;-88
2022/08/26 12:45:37;;;;;;;28.52;16.20;;;23.90;99.90;;;;;;4995966;28;20034;-88
2022/08/26 12:48:12;;;;;;;29.02;17.05;;;24.00;99.90;;;;;;4995724;28;20479;-87